Time;durP1;ratioP1;P1;durP2;ratioP2;P2;SDS_P1;SDS_P2;PMS_P1;PMS_P2;Temp;Humidity;BMP_temperature;BMP_pressure;BME280_temperature;BME280_humidity;BME280_pressure;Samples;Min_cycle;Max_cycle;Signal;HPM_P1;HPM_P2
2023/12/24 00:01:29;;;;;;;2.20;0.80;;;;;;;12.01;35.51;93932.16;5078586;28;20024;-83
2023/12/24 00:03:55;;;;;;;3.75;1.10;;;;;;;11.81;36.55;93927.22;5078622;28;20029;-83
2023/12/24 00:06:20;;;;;;;6.80;1.30;;;;;;;11.84;36.93;93931.88;5078615;28;20449;-83
2023/12/24 00:08:46;;;;;;;6.68;1.23;;;;;;;11.58;37.81;93927.00;5079620;28;20445;-83
2023/12/24 00:11:11;;;;;;;5.70;1.08;;;;;;;11.43;38.32;93928.75;5078645;28;20029;-83
2023/12/24 00:13:37;;;;;;;2.58;1.00;;;;;;;11.25;38.31;93934.78;5078411;28;20498;-83
2023/12/24 00:16:03;;;;;;;2.28;0.90;;;;;;;11.27;38.38;93938.69;5078432;28;20052;-83
2023/12/24 00:18:28;;;;;;;2.85;0.93;;;;;;;11.24;38.52;93936.59;5079407;28;20028;-83
2023/12/24 00:20:55;;;;;;;6.05;0.93;;;;;;;10.98;35.80;93936.16;5078354;28;20035;-83
2023/12/24 00:23:21;;;;;;;1.52;0.60;;;;;;;11.09;34.32;93929.72;5079463;28;20028;-83
2023/12/24 00:25:46;;;;;;;2.28;0.80;;;;;;;11.09;37.78;93942.84;5078026;28;20085;-83
2023/12/24 00:28:12;;;;;;;3.53;1.00;;;;;;;10.98;36.69;93934.31;5078091;28;20027;-83
2023/12/24 00:30:37;;;;;;;5.78;1.00;;;;;;;10.99;37.83;93951.59;5077996;28;20039;-83
2023/12/24 00:33:03;;;;;;;2.97;0.88;;;;;;;11.14;36.63;93949.88;5078085;28;20025;-83
2023/12/24 00:35:32;;;;;;;3.63;0.60;;;;;;;10.99;34.62;93946.34;5080051;28;20460;-83
2023/12/24 00:37:58;;;;;;;1.52;0.80;;;;;;;11.24;35.04;93941.84;5098229;28;20028;-83
2023/12/24 00:40:24;;;;;;;1.77;0.82;;;;;;;11.07;35.20;93942.34;5098276;28;20464;-83
2023/12/24 00:42:49;;;;;;;2.90;0.60;;;;;;;10.87;35.63;93951.22;5098180;28;20020;-83
2023/12/24 00:45:15;;;;;;;2.53;0.63;;;;;;;10.93;33.35;93942.22;5098361;28;20027;-83
2023/12/24 00:47:40;;;;;;;3.05;0.70;;;;;;;10.98;34.10;93944.81;5097778;28;20470;-83
2023/12/24 00:50:07;;;;;;;2.20;0.80;;;;;;;10.89;36.03;93952.47;5098010;28;20028;-83
2023/12/24 00:52:36;;;;;;;1.80;0.70;;;;;;;10.96;36.19;93949.50;5097995;28;20310;-83
2023/12/24 00:55:02;;;;;;;1.45;0.52;;;;;;;11.01;33.35;93951.31;5097968;28;20024;-83
2023/12/24 00:57:28;;;;;;;1.25;0.50;;;;;;;10.91;34.13;93949.59;5097783;28;20024;-83
2023/12/24 00:59:53;;;;;;;1.58;0.60;;;;;;;10.77;33.83;93949.47;5097898;28;20097;-83
2023/12/24 01:02:19;;;;;;;2.25;0.57;;;;;;;10.82;33.76;93948.63;5097781;28;20441;-83
2023/12/24 01:04:44;;;;;;;3.03;1.13;;;;;;;10.83;35.67;93948.34;5097838;28;20016;-83
2023/12/24 01:07:09;;;;;;;6.57;1.00;;;;;;;10.85;33.07;93961.19;5080587;28;20024;-83
2023/12/24 01:09:36;;;;;;;3.42;0.90;;;;;;;10.92;32.22;93956.38;5098764;28;20337;-83
2023/12/24 01:12:02;;;;;;;3.00;0.70;;;;;;;11.02;33.52;93966.75;5097553;28;20032;-83
2023/12/24 01:14:27;;;;;;;4.63;0.80;;;;;;;11.02;33.75;93958.91;5097482;28;20023;-83
2023/12/24 01:16:53;;;;;;;2.60;0.88;;;;;;;11.10;33.79;93967.19;5097268;28;20031;-83
2023/12/24 01:19:18;;;;;;;3.05;0.80;;;;;;;10.93;35.42;93970.28;5080596;28;20050;-83
2023/12/24 01:21:44;;;;;;;2.20;1.00;;;;;;;11.20;35.49;93968.94;5097458;28;20333;-83
2023/12/24 01:24:09;;;;;;;3.55;0.77;;;;;;;11.00;36.71;93974.13;5080802;28;20031;-83
2023/12/24 01:26:36;;;;;;;4.35;0.90;;;;;;;10.97;36.86;93973.91;5097363;28;20024;-83
2023/12/24 01:29:02;;;;;;;3.75;0.60;;;;;;;11.08;35.11;93977.19;5097031;28;20016;-83
2023/12/24 01:31:28;;;;;;;4.22;1.08;;;;;;;11.14;35.42;93978.72;5097247;28;20020;-83
2023/12/24 01:33:53;;;;;;;3.25;0.80;;;;;;;10.98;35.87;93978.09;5097233;28;20031;-83
2023/12/24 01:36:19;;;;;;;2.05;0.73;;;;;;;10.85;34.26;93980.31;5097131;28;20024;-83
2023/12/24 01:38:45;;;;;;;4.95;0.82;;;;;;;10.84;33.45;93977.97;5097043;28;20024;-83
2023/12/24 01:41:11;;;;;;;1.25;0.70;;;;;;;10.79;35.02;93991.13;5076878;28;20024;-83
2023/12/24 01:43:36;;;;;;;2.10;0.50;;;;;;;10.75;34.29;93983.81;5077901;28;20027;-83
2023/12/24 01:46:02;;;;;;;2.15;0.63;;;;;;;10.66;34.06;93979.47;5080071;28;20038;-83
2023/12/24 01:48:28;;;;;;;1.42;0.40;;;;;;;10.75;32.14;93978.56;5080665;28;20360;-83
2023/12/24 01:50:53;;;;;;;3.08;0.63;;;;;;;10.87;31.44;93988.66;5076489;28;20039;-82
2023/12/24 01:53:18;;;;;;;1.38;0.85;;;;;;;11.08;31.45;93983.22;5070856;28;20016;-83
2023/12/24 01:55:46;;;;;;;2.28;0.60;;;;;;;10.78;32.36;93986.94;5088625;28;20016;-83
2023/12/24 01:58:12;;;;;;;3.28;1.20;;;;;;;10.65;32.83;93983.91;5068844;28;20020;-83
2023/12/24 02:00:37;;;;;;;0.73;0.50;;;;;;;10.57;32.90;93989.75;5083062;28;20076;-82
2023/12/24 02:03:08;;;;;;;0.38;0.30;;;;;;;10.48;32.14;93994.03;5083853;28;20434;-83
2023/12/24 02:05:35;;;;;;;5.97;2.40;;;;;;;10.63;32.29;93998.34;5092061;28;20032;-83
2023/12/24 02:08:02;;;;;;;2.35;0.63;;;;;;;10.45;31.95;93997.97;5096689;28;20024;-83
2023/12/24 02:10:28;;;;;;;1.55;0.35;;;;;;;10.53;32.17;93997.38;5095932;28;20036;-83
2023/12/24 02:12:53;;;;;;;1.33;0.40;;;;;;;10.56;33.35;93994.19;5096436;28;20039;-83
2023/12/24 02:15:19;;;;;;;1.83;0.75;;;;;;;10.37;33.15;93983.59;5096630;28;20032;-83
2023/12/24 02:17:45;;;;;;;2.35;0.60;;;;;;;10.23;34.21;93993.13;5095724;28;20035;-83
2023/12/24 02:20:10;;;;;;;2.05;0.55;;;;;;;10.20;34.82;93994.47;5079074;28;20408;-83
2023/12/24 02:22:36;;;;;;;2.60;1.02;;;;;;;9.99;34.36;93991.22;5076050;28;20028;-83
2023/12/24 02:25:02;;;;;;;1.15;0.40;;;;;;;9.95;33.79;93998.84;5082137;28;20035;-83
2023/12/24 02:27:38;;;;;;;2.28;0.68;;;;;;;9.97;34.76;94003.78;5096027;28;20111;-83
2023/12/24 02:30:14;;;;;;;1.73;0.82;;;;;;;9.74;35.19;94011.25;5096128;28;20073;-83
2023/12/24 02:32:40;;;;;;;2.95;0.40;;;;;;;9.54;36.40;94007.69;5097409;28;20020;-82
2023/12/24 02:35:07;;;;;;;2.40;0.70;;;;;;;9.59;36.71;94012.91;5088740;28;20039;-82
2023/12/24 02:37:32;;;;;;;1.30;0.73;;;;;;;9.67;37.67;94000.28;5095250;28;20349;-82
2023/12/24 02:39:59;;;;;;;3.08;0.93;;;;;;;9.67;38.08;94003.69;5093992;28;20031;-82
2023/12/24 02:42:25;;;;;;;4.03;0.95;;;;;;;9.77;38.88;94002.84;5095925;28;20452;-82
2023/12/24 02:44:50;;;;;;;4.30;1.02;;;;;;;9.72;39.52;94006.28;5083947;28;20028;-82
2023/12/24 02:47:16;;;;;;;3.63;0.98;;;;;;;9.58;38.92;94006.09;5076624;28;20060;-82
2023/12/24 02:49:41;;;;;;;3.15;0.90;;;;;;;9.53;38.38;94007.97;5075445;28;20094;-82
2023/12/24 02:52:07;;;;;;;2.75;0.82;;;;;;;9.63;37.75;94002.69;5075591;28;20028;-82
2023/12/24 02:54:32;;;;;;;3.97;0.80;;;;;;;9.75;37.82;94007.59;5075838;28;20346;-83
2023/12/24 02:56:57;;;;;;;1.80;0.70;;;;;;;9.82;36.85;94004.66;5075467;28;20024;-82
2023/12/24 02:59:25;;;;;;;1.55;0.63;;;;;;;10.00;35.03;94004.03;5087480;28;20028;-82
2023/12/24 03:01:51;;;;;;;4.00;0.80;;;;;;;10.07;34.70;94001.09;5096796;28;20028;-82
2023/12/24 03:04:16;;;;;;;2.15;0.70;;;;;;;9.80;35.91;93997.06;5095908;28;20035;-82
2023/12/24 03:06:41;;;;;;;0.70;0.50;;;;;;;9.76;36.01;94002.09;5095529;28;20032;-82
2023/12/24 03:09:07;;;;;;;1.55;0.60;;;;;;;9.97;36.29;94003.78;5095773;28;20032;-82
2023/12/24 03:11:33;;;;;;;1.13;0.65;;;;;;;9.91;35.77;94003.06;5095595;28;20034;-82
2023/12/24 03:13:58;;;;;;;3.38;0.70;;;;;;;9.85;36.25;94002.31;5095681;28;20035;-83
2023/12/24 03:16:23;;;;;;;1.95;0.70;;;;;;;9.80;35.88;94006.78;5095555;28;20039;-83
2023/12/24 03:18:49;;;;;;;1.15;0.70;;;;;;;9.50;36.35;94005.88;5095361;28;20028;-83
2023/12/24 03:21:14;;;;;;;1.08;0.80;;;;;;;9.46;35.76;94000.41;5095724;28;20322;-82
2023/12/24 03:23:40;;;;;;;2.33;0.82;;;;;;;9.52;36.01;94001.16;5096635;28;20342;-82
2023/12/24 03:26:05;;;;;;;3.17;0.63;;;;;;;9.67;35.56;93997.69;5095375;28;20021;-82
2023/12/24 03:28:31;;;;;;;3.78;0.80;;;;;;;9.62;35.28;93995.91;5096488;28;20028;-82
2023/12/24 03:30:56;;;;;;;2.65;0.82;;;;;;;9.57;35.76;93990.66;5095538;28;20028;-82
2023/12/24 03:33:22;;;;;;;4.97;0.77;;;;;;;9.54;35.75;93992.00;5095576;28;20049;-82
2023/12/24 03:35:47;;;;;;;2.47;0.75;;;;;;;9.50;36.20;93998.03;5095329;28;20035;-82
2023/12/24 03:38:12;;;;;;;3.53;0.80;;;;;;;9.58;36.05;93992.22;5095146;28;20039;-83
2023/12/24 03:40:38;;;;;;;3.95;0.70;;;;;;;9.52;37.33;94001.16;5095350;28;20020;-82
2023/12/24 03:43:03;;;;;;;6.63;0.98;;;;;;;9.45;36.67;94007.44;5095400;28;20028;-83
2023/12/24 03:45:31;;;;;;;1.67;0.57;;;;;;;9.54;36.09;94014.75;5095493;28;20020;-83
2023/12/24 03:47:56;;;;;;;1.13;0.73;;;;;;;9.61;35.80;94010.78;5094657;28;20356;-82
2023/12/24 03:50:22;;;;;;;1.52;0.60;;;;;;;9.43;35.83;94014.78;5095339;28;20024;-83
2023/12/24 03:52:47;;;;;;;1.25;0.57;;;;;;;9.52;36.39;94004.53;5095197;28;20024;-82
2023/12/24 03:55:12;;;;;;;3.28;0.75;;;;;;;9.53;36.80;94006.09;5095187;28;20034;-82
2023/12/24 03:57:38;;;;;;;1.10;0.65;;;;;;;9.74;36.93;94003.41;5095020;28;20024;-83
2023/12/24 04:00:05;;;;;;;3.85;0.63;;;;;;;9.92;36.72;93998.59;5096322;28;20028;-82
2023/12/24 04:02:30;;;;;;;1.52;0.80;;;;;;;10.32;35.42;94001.97;5095135;28;20371;-83
2023/12/24 04:04:55;;;;;;;1.50;0.50;;;;;;;10.45;34.20;93997.97;5095461;28;20028;-83
2023/12/24 04:07:21;;;;;;;1.95;0.70;;;;;;;10.19;34.45;94000.78;5081719;28;20081;-83
2023/12/24 04:09:46;;;;;;;1.85;0.45;;;;;;;10.48;30.20;94007.91;5098772;28;20080;-82
2023/12/24 04:12:12;;;;;;;2.78;0.60;;;;;;;10.19;33.85;94006.00;5098800;28;20028;-83
2023/12/24 04:14:38;;;;;;;1.80;0.70;;;;;;;10.06;34.81;94009.25;5098603;28;20471;-82
2023/12/24 04:17:04;;;;;;;0.95;0.55;;;;;;;10.01;35.86;94002.97;5098600;28;20028;-83
2023/12/24 04:19:29;;;;;;;2.53;0.70;;;;;;;9.57;36.80;94001.13;5098586;28;20034;-82
2023/12/24 04:21:55;;;;;;;0.47;0.30;;;;;;;9.72;31.89;93993.19;5098615;28;20028;-82
2023/12/24 04:24:20;;;;;;;0.70;0.40;;;;;;;9.64;32.69;93999.00;5097432;28;20052;-83
2023/12/24 04:26:46;;;;;;;1.05;0.40;;;;;;;9.62;34.16;94004.50;5097831;28;20058;-83
2023/12/24 04:29:13;;;;;;;1.20;0.50;;;;;;;9.45;34.81;94004.06;5081800;28;20032;-82
2023/12/24 04:31:39;;;;;;;1.45;0.60;;;;;;;9.28;33.81;94015.66;5098384;28;20060;-83
2023/12/24 04:34:06;;;;;;;0.82;0.40;;;;;;;9.16;32.45;94013.31;5080625;28;20036;-83
2023/12/24 04:36:33;;;;;;;1.00;0.45;;;;;;;9.09;32.24;94010.22;5085492;28;20078;-83
2023/12/24 04:38:58;;;;;;;1.23;0.30;;;;;;;9.06;31.95;94010.75;5087762;28;20028;-83
2023/12/24 04:41:23;;;;;;;2.90;1.15;;;;;;;9.10;33.20;94021.44;5084983;28;20315;-83
2023/12/24 04:43:49;;;;;;;3.03;0.60;;;;;;;8.82;33.52;94027.00;5088253;28;20052;-83
2023/12/24 04:46:14;;;;;;;1.92;0.57;;;;;;;8.85;33.56;94029.06;5088238;28;20024;-83
2023/12/24 04:48:40;;;;;;;2.92;0.73;;;;;;;8.83;34.56;94035.63;5077665;28;20031;-83
2023/12/24 04:51:05;;;;;;;1.98;0.65;;;;;;;8.95;36.39;94035.34;5077642;28;20059;-83
2023/12/24 04:53:31;;;;;;;1.85;0.60;;;;;;;9.03;36.78;94032.16;5069625;28;20031;-83
2023/12/24 04:55:57;;;;;;;1.60;0.55;;;;;;;9.13;36.13;94034.75;5077807;28;20032;-83
2023/12/24 04:58:22;;;;;;;1.63;0.40;;;;;;;9.17;32.80;94035.03;5077812;28;20028;-83
2023/12/24 05:00:48;;;;;;;1.20;0.50;;;;;;;9.11;33.79;94029.03;5077608;28;20024;-83
2023/12/24 05:03:14;;;;;;;4.78;0.77;;;;;;;9.10;35.97;94035.31;5076019;28;20084;-83
2023/12/24 05:05:39;;;;;;;1.13;0.60;;;;;;;9.29;34.40;94039.94;5098948;28;20032;-83
2023/12/24 05:08:05;;;;;;;3.15;0.60;;;;;;;9.28;32.30;94031.34;5097694;28;20028;-83
2023/12/24 05:10:30;;;;;;;3.15;0.55;;;;;;;9.37;31.27;94038.59;5094628;28;20028;-83
2023/12/24 05:12:56;;;;;;;2.10;0.55;;;;;;;9.57;31.95;94032.50;5077364;28;20028;-83
2023/12/24 05:15:21;;;;;;;0.60;0.40;;;;;;;9.50;31.28;94035.41;5077597;28;20464;-83
2023/12/24 05:17:46;;;;;;;1.17;0.40;;;;;;;9.82;29.59;94031.59;5076536;28;20026;-83
2023/12/24 05:20:12;;;;;;;0.82;0.50;;;;;;;9.38;30.48;94040.97;5086841;28;20024;-83
2023/12/24 05:22:37;;;;;;;1.30;0.50;;;;;;;9.26;31.14;94035.25;5097357;28;20441;-83
2023/12/24 05:25:03;;;;;;;2.67;0.40;;;;;;;9.18;31.80;94037.38;5080666;28;20034;-83
2023/12/24 05:27:28;;;;;;;3.30;0.50;;;;;;;9.08;31.68;94037.41;5097430;28;20020;-83
2023/12/24 05:29:54;;;;;;;1.40;0.55;;;;;;;9.01;30.56;94042.09;5096522;28;20063;-83
2023/12/24 05:32:19;;;;;;;0.50;0.30;;;;;;;9.13;30.09;94042.59;5098350;28;20069;-83
2023/12/24 05:34:45;;;;;;;2.33;0.65;;;;;;;9.10;29.91;94042.34;5080550;28;20024;-83
2023/12/24 05:37:11;;;;;;;0.68;0.45;;;;;;;9.21;29.72;94045.72;5075416;28;20025;-83
2023/12/24 05:39:41;;;;;;;0.70;0.40;;;;;;;9.32;29.63;94047.25;5078051;28;20032;-83
2023/12/24 05:42:06;;;;;;;0.82;0.50;;;;;;;9.15;30.60;94043.13;5076893;28;20051;-83
2023/12/24 05:44:34;;;;;;;0.82;0.50;;;;;;;9.18;29.76;94042.59;5076970;28;20060;-83
2023/12/24 05:46:59;;;;;;;2.33;0.40;;;;;;;9.16;29.82;94049.13;5076559;28;20450;-83
2023/12/24 05:49:25;;;;;;;0.93;0.50;;;;;;;9.33;28.76;94041.75;5076597;28;20028;-83
2023/12/24 05:51:50;;;;;;;1.05;0.43;;;;;;;9.27;29.13;94036.81;5076669;28;20345;-83
2023/12/24 05:54:15;;;;;;;1.45;0.50;;;;;;;9.25;29.22;94034.47;5060615;28;20025;-83
2023/12/24 05:56:41;;;;;;;0.30;0.30;;;;;;;9.34;29.28;94043.31;5077602;28;20030;-83
2023/12/24 05:59:06;;;;;;;0.70;0.50;;;;;;;9.75;28.11;94037.16;5077665;28;20026;-83
2023/12/24 06:01:32;;;;;;;0.55;0.40;;;;;;;9.51;29.71;94042.22;5076948;28;20031;-83
2023/12/24 06:03:58;;;;;;;1.08;0.50;;;;;;;9.41;28.67;94044.88;5059944;28;20021;-83
2023/12/24 06:06:23;;;;;;;0.30;0.30;;;;;;;9.27;29.14;94042.84;5076467;28;20190;-83
2023/12/24 06:08:48;;;;;;;1.40;0.65;;;;;;;9.64;27.96;94042.69;5084864;28;20333;-83
2023/12/24 06:11:17;;;;;;;1.92;0.80;;;;;;;9.41;28.87;94044.88;5097656;28;20031;-83
2023/12/24 06:13:43;;;;;;;0.80;0.30;;;;;;;9.41;28.36;94048.28;5096496;28;20100;-83
2023/12/24 06:16:09;;;;;;;1.92;0.60;;;;;;;9.23;28.85;94043.63;5079412;28;20024;-83
2023/12/24 06:18:35;;;;;;;1.00;0.57;;;;;;;9.27;28.75;94050.69;5079375;28;20031;-83
2023/12/24 06:21:02;;;;;;;0.70;0.50;;;;;;;9.21;29.18;94048.34;5096293;28;20041;-83
2023/12/24 06:23:27;;;;;;;1.73;0.50;;;;;;;9.21;28.80;94054.34;5095663;28;20479;-83
2023/12/24 06:25:53;;;;;;;0.65;0.43;;;;;;;9.34;30.63;94050.41;5096337;28;20133;-83
2023/12/24 06:28:18;;;;;;;0.77;0.38;;;;;;;9.22;31.53;94055.13;5097192;28;20028;-83
2023/12/24 06:30:43;;;;;;;1.13;0.55;;;;;;;9.24;30.88;94059.03;5096164;28;20030;-83
2023/12/24 06:33:09;;;;;;;0.88;0.40;;;;;;;9.14;30.88;94059.84;5078828;28;20028;-83
2023/12/24 06:35:34;;;;;;;0.40;0.30;;;;;;;8.99;31.38;94062.50;5075920;28;20024;-83
2023/12/24 06:37:59;;;;;;;0.90;0.50;;;;;;;8.90;31.20;94065.66;5075700;28;20024;-83
2023/12/24 06:40:25;;;;;;;0.95;0.52;;;;;;;8.83;31.14;94062.53;5088324;28;20020;-83
2023/12/24 06:42:51;;;;;;;0.65;0.50;;;;;;;8.58;31.83;94065.94;5096277;28;20028;-83
2023/12/24 06:45:16;;;;;;;1.95;0.43;;;;;;;8.58;32.75;94079.00;5095921;28;20020;-83
2023/12/24 06:47:42;;;;;;;0.55;0.45;;;;;;;8.57;32.06;94066.97;5094861;28;20023;-83
2023/12/24 06:50:07;;;;;;;0.60;0.45;;;;;;;8.58;32.12;94076.38;5095989;28;20111;-83
2023/12/24 06:52:33;;;;;;;2.58;0.43;;;;;;;8.48;31.75;94083.13;5095886;28;20356;-83
2023/12/24 06:54:59;;;;;;;0.88;0.40;;;;;;;8.86;30.60;94079.50;5091136;28;20024;-83
2023/12/24 06:57:25;;;;;;;0.63;0.45;;;;;;;8.66;31.32;94072.47;5076065;28;20346;-83
2023/12/24 06:59:51;;;;;;;1.20;0.60;;;;;;;8.75;31.37;94076.91;5063746;28;20031;-83
2023/12/24 07:02:16;;;;;;;1.95;0.55;;;;;;;8.96;31.22;94079.47;5092191;28;20024;-83
2023/12/24 07:04:42;;;;;;;4.35;0.65;;;;;;;9.08;30.36;94084.44;5095565;28;20521;-83
2023/12/24 07:07:07;;;;;;;0.65;0.43;;;;;;;9.46;29.72;94087.47;5096072;28;20024;-83
2023/12/24 07:09:32;;;;;;;0.82;0.45;;;;;;;9.44;31.06;94081.72;5096555;28;20024;-82
2023/12/24 07:11:58;;;;;;;0.98;0.40;;;;;;;9.51;30.43;94083.28;5070437;28;20350;-83
2023/12/24 07:14:23;;;;;;;0.75;0.38;;;;;;;9.80;29.12;94091.28;5091520;28;20049;-83
2023/12/24 07:16:49;;;;;;;3.70;0.52;;;;;;;9.96;28.51;94086.75;5094673;28;20031;-83
2023/12/24 07:19:14;;;;;;;0.75;0.40;;;;;;;9.91;30.35;94089.41;5078273;28;20024;-83
2023/12/24 07:21:40;;;;;;;0.52;0.38;;;;;;;9.89;32.39;94096.72;5095446;28;20307;-83
2023/12/24 07:24:05;;;;;;;1.52;0.57;;;;;;;9.95;31.27;94085.19;5088852;28;20035;-84
2023/12/24 07:26:33;;;;;;;0.70;0.50;;;;;;;10.00;30.67;94093.00;5084531;28;20110;-84
2023/12/24 07:28:59;;;;;;;0.57;0.40;;;;;;;10.12;29.53;94097.16;5085972;28;20077;-84
2023/12/24 07:31:25;;;;;;;1.60;0.68;;;;;;;10.49;28.46;94095.13;5087589;28;20020;-85
2023/12/24 07:33:50;;;;;;;1.55;0.52;;;;;;;10.42;30.15;94098.84;5080993;28;20073;-85
2023/12/24 07:36:16;;;;;;;0.90;0.43;;;;;;;10.56;30.47;94095.59;5078535;28;20020;-84
2023/12/24 07:38:41;;;;;;;1.05;0.47;;;;;;;10.67;30.61;94094.44;5094148;28;20035;-85
2023/12/24 07:41:07;;;;;;;1.77;0.63;;;;;;;10.58;29.57;94096.88;5081724;28;20031;-85
2023/12/24 07:43:33;;;;;;;1.25;0.50;;;;;;;10.86;29.41;94102.41;5094899;28;20027;-84
2023/12/24 07:46:00;;;;;;;4.13;0.35;;;;;;;10.87;29.89;94101.34;5099169;28;20441;-87
2023/12/24 07:48:26;;;;;;;0.65;0.47;;;;;;;10.94;30.72;94103.66;5080439;28;20085;-84
2023/12/24 07:50:51;;;;;;;2.35;0.70;;;;;;;11.03;29.04;94102.03;5099032;28;20032;-84
2023/12/24 07:53:17;;;;;;;1.02;0.43;;;;;;;11.03;32.31;94114.34;5094643;28;20412;-84
2023/12/24 07:55:42;;;;;;;1.13;0.57;;;;;;;11.10;30.99;94104.31;5076404;28;20108;-84
2023/12/24 07:58:08;;;;;;;0.63;0.40;;;;;;;11.21;31.75;94114.72;5098490;28;20035;-83
2023/12/24 08:00:33;;;;;;;1.52;0.40;;;;;;;11.28;30.81;94112.53;5099295;28;20028;-84
2023/12/24 08:02:59;;;;;;;1.00;0.63;;;;;;;11.16;31.41;94107.69;5099017;28;20341;-84
2023/12/24 08:05:24;;;;;;;0.77;0.50;;;;;;;11.20;32.44;94111.31;5097525;28;20330;-83
2023/12/24 08:07:50;;;;;;;1.95;0.90;;;;;;;11.29;31.37;94120.16;5095073;28;20029;-83
2023/12/24 08:10:15;;;;;;;1.77;0.80;;;;;;;11.35;33.79;94115.63;5084109;28;20036;-84
2023/12/24 08:12:41;;;;;;;2.83;0.70;;;;;;;11.34;33.42;94123.78;5078216;28;20453;-84
2023/12/24 08:15:06;;;;;;;1.30;0.50;;;;;;;11.36;33.73;94121.66;5088570;28;20032;-83
2023/12/24 08:17:32;;;;;;;2.20;0.70;;;;;;;11.37;32.28;94131.06;5098099;28;20330;-84
2023/12/24 08:19:57;;;;;;;0.70;0.47;;;;;;;11.43;32.68;94125.50;5098503;28;20110;-84
2023/12/24 08:22:23;;;;;;;1.33;0.68;;;;;;;11.46;32.72;94124.94;5092862;28;20028;-83
2023/12/24 08:24:49;;;;;;;1.25;0.57;;;;;;;11.46;31.74;94127.56;5078232;28;20054;-83
2023/12/24 08:27:15;;;;;;;0.65;0.50;;;;;;;11.57;31.22;94133.50;5085109;28;20032;-83
2023/12/24 08:29:40;;;;;;;2.40;0.90;;;;;;;11.62;33.23;94124.81;5098055;28;20425;-83
2023/12/24 08:32:05;;;;;;;0.93;0.40;;;;;;;11.74;32.53;94135.66;5098200;28;20028;-83
2023/12/24 08:34:32;;;;;;;1.00;0.50;;;;;;;11.87;32.28;94142.09;5097836;28;20031;-86
2023/12/24 08:36:58;;;;;;;2.05;0.63;;;;;;;12.13;32.90;94138.41;5095064;28;20028;-83
2023/12/24 08:39:23;;;;;;;7.43;0.60;;;;;;;12.15;33.54;94141.53;5099446;28;20491;-84
2023/12/24 08:41:49;;;;;;;1.08;0.63;;;;;;;12.22;34.15;94152.47;5093272;28;20566;-84
2023/12/24 08:44:14;;;;;;;1.80;0.50;;;;;;;12.43;33.74;94153.00;5097070;28;20115;-84
2023/12/24 08:46:41;;;;;;;0.88;0.55;;;;;;;12.53;35.98;94152.06;5080889;28;20426;-84
2023/12/24 08:49:08;;;;;;;1.73;0.50;;;;;;;12.59;35.53;94155.41;5081672;28;20047;-84
2023/12/24 08:51:33;;;;;;;1.38;0.63;;;;;;;12.70;35.73;94151.56;5088033;28;20507;-83
2023/12/24 08:53:59;;;;;;;0.65;0.55;;;;;;;12.80;34.58;94155.88;5097819;28;20058;-84
2023/12/24 08:56:25;;;;;;;2.35;0.80;;;;;;;12.91;36.82;94160.97;5098069;28;20028;-84
2023/12/24 08:58:50;;;;;;;2.17;0.57;;;;;;;12.90;35.09;94156.78;5095487;28;20337;-84
2023/12/24 09:01:16;;;;;;;1.92;0.70;;;;;;;13.03;33.25;94163.94;5083397;28;20323;-84
2023/12/24 09:03:42;;;;;;;1.55;0.55;;;;;;;13.10;33.74;94167.00;5077599;28;20115;-84
2023/12/24 09:06:08;;;;;;;1.42;0.65;;;;;;;13.21;35.21;94158.94;5078835;28;20111;-84
2023/12/24 09:08:33;;;;;;;2.47;0.70;;;;;;;13.25;33.76;94171.22;5077595;28;20036;-84
2023/12/24 09:10:58;;;;;;;1.95;0.60;;;;;;;13.35;31.77;94170.28;5079633;28;20032;-84
2023/12/24 09:13:24;;;;;;;2.55;0.70;;;;;;;13.49;32.46;94172.97;5097636;28;20031;-84
2023/12/24 09:15:49;;;;;;;3.47;0.60;;;;;;;13.46;32.30;94188.53;5097582;28;20430;-84
2023/12/24 09:18:15;;;;;;;3.05;0.90;;;;;;;13.74;35.60;94184.13;5081163;28;20039;-84
2023/12/24 09:20:40;;;;;;;1.92;0.80;;;;;;;13.74;33.85;94193.84;5079462;28;20028;-84
2023/12/24 09:23:06;;;;;;;2.35;0.52;;;;;;;13.70;34.55;94191.81;5078506;28;20078;-84
2023/12/24 09:25:31;;;;;;;1.35;0.77;;;;;;;13.80;32.60;94198.75;5077735;28;20123;-84
2023/12/24 09:27:57;;;;;;;1.02;0.60;;;;;;;13.71;33.38;94203.91;5085163;28;20031;-84
2023/12/24 09:30:24;;;;;;;1.02;0.60;;;;;;;13.81;33.30;94208.19;5078345;28;20489;-84
2023/12/24 09:32:49;;;;;;;1.65;0.55;;;;;;;14.25;34.05;94200.81;5077103;28;20345;-84
2023/12/24 09:35:15;;;;;;;1.83;0.80;;;;;;;14.28;31.90;94208.13;5083407;28;20032;-84
2023/12/24 09:37:40;;;;;;;1.33;0.50;;;;;;;14.38;33.76;94203.72;5090325;28;20406;-84
2023/12/24 09:40:07;;;;;;;3.03;0.50;;;;;;;14.47;35.80;94207.22;5094082;28;20024;-84
2023/12/24 09:42:33;;;;;;;1.55;0.70;;;;;;;14.85;31.74;94211.47;5080145;28;20036;-84
2023/12/24 09:44:59;;;;;;;2.28;0.85;;;;;;;14.75;31.58;94204.53;5085702;28;20077;-84
2023/12/24 09:47:24;;;;;;;1.25;0.50;;;;;;;15.11;29.04;94213.50;5097264;28;20074;-84
2023/12/24 09:49:50;;;;;;;1.42;0.50;;;;;;;15.16;30.35;94212.63;5087168;28;20058;-84
2023/12/24 09:52:15;;;;;;;1.75;0.50;;;;;;;14.89;32.42;94211.63;5076944;28;20028;-84
2023/12/24 09:54:42;;;;;;;1.55;0.63;;;;;;;15.06;31.32;94211.78;5085292;28;20051;-84
2023/12/24 09:57:07;;;;;;;1.63;0.70;;;;;;;15.11;30.69;94219.59;5096881;28;20036;-84
2023/12/24 09:59:33;;;;;;;2.25;1.13;;;;;;;14.97;31.71;94221.50;5097844;28;20036;-84
2023/12/24 10:01:58;;;;;;;2.53;0.82;;;;;;;14.84;32.91;94215.94;5096759;28;20032;-84
2023/12/24 10:04:24;;;;;;;3.08;1.13;;;;;;;14.64;33.88;94214.50;5070530;28;20044;-84
2023/12/24 10:06:54;;;;;;;3.80;1.30;;;;;;;14.60;33.50;94212.75;5096409;28;20417;-84
2023/12/24 10:09:23;;;;;;;1.90;1.00;;;;;;;14.60;33.05;94216.19;5079458;28;20138;-84
2023/12/24 10:12:09;;;;;;;3.40;1.20;;;;;;;14.63;33.70;94214.78;5086366;28;20039;-83
2023/12/24 10:14:36;;;;;;;1.90;1.10;;;;;;;14.68;36.43;94212.84;5076006;28;20049;-84
2023/12/24 10:17:03;;;;;;;2.53;1.00;;;;;;;14.76;36.51;94215.88;5062473;28;20037;-84
2023/12/24 10:19:29;;;;;;;4.10;1.50;;;;;;;14.75;36.54;94209.81;5096409;28;20024;-83
2023/12/24 10:22:08;;;;;;;2.58;1.10;;;;;;;14.65;35.57;94207.38;5073903;28;20089;-84
2023/12/24 10:24:35;;;;;;;3.55;1.15;;;;;;;14.66;34.63;94201.03;5075906;28;20024;-84
2023/12/24 10:27:09;;;;;;;2.33;1.23;;;;;;;14.72;34.63;94202.50;5059472;28;20028;-84
2023/12/24 10:29:37;;;;;;;3.45;1.27;;;;;;;14.80;37.54;94193.91;5068943;28;20124;-84
2023/12/24 10:32:03;;;;;;;2.85;1.23;;;;;;;14.77;38.50;94193.72;5076150;28;20119;-84
2023/12/24 10:34:30;;;;;;;2.30;1.30;;;;;;;14.99;36.47;94195.59;5075890;28;20029;-85
2023/12/24 10:36:58;;;;;;;2.65;1.25;;;;;;;15.32;38.65;94190.06;5075604;28;20056;-84
2023/12/24 10:39:24;;;;;;;1.80;0.60;;;;;;;15.62;29.09;94181.69;5059529;28;20035;-84
2023/12/24 10:41:54;;;;;;;2.45;1.02;;;;;;;16.02;33.13;94179.09;5075800;28;20028;-84
2023/12/24 10:44:21;;;;;;;2.35;1.02;;;;;;;16.10;31.53;94186.25;5094036;28;20060;-84
2023/12/24 10:46:47;;;;;;;2.67;1.05;;;;;;;16.25;30.41;94178.97;5089393;28;20055;-84
2023/12/24 10:49:13;;;;;;;3.03;1.08;;;;;;;16.02;33.90;94178.31;5085424;28;20036;-84
2023/12/24 10:51:39;;;;;;;2.28;1.05;;;;;;;16.03;30.83;94175.38;5095539;28;20493;-84
2023/12/24 10:54:08;;;;;;;1.95;1.02;;;;;;;16.01;31.35;94182.03;5097052;28;20499;-91
2023/12/24 10:57:17;;;;;;;6.65;1.00;;;;;;;15.88;33.89;94173.09;5095078;28;20052;-84
2023/12/24 11:00:09;;;;;;;3.45;1.33;;;;;;;16.03;36.94;94178.00;5084514;28;20033;-84
2023/12/24 11:02:36;;;;;;;1.55;0.95;;;;;;;17.30;32.96;94166.94;5059012;28;20036;-84
2023/12/24 11:05:01;;;;;;;1.50;0.80;;;;;;;17.20;30.27;94173.31;5077073;28;20020;-84
2023/12/24 11:07:33;;;;;;;1.75;0.60;;;;;;;17.62;28.08;94160.28;5061965;28;20572;-84
2023/12/24 11:10:05;;;;;;;2.42;0.70;;;;;;;17.71;26.38;94168.19;5075664;28;20032;-84
2023/12/24 11:12:38;;;;;;;0.50;0.30;;;;;;;18.07;24.39;94147.66;5075378;28;20051;-84
2023/12/24 11:15:04;;;;;;;0.40;0.30;;;;;;;18.30;22.29;94147.38;5065633;28;20085;-84
2023/12/24 11:17:36;;;;;;;0.98;0.47;;;;;;;18.30;26.48;94157.97;5095519;28;20024;-84
2023/12/24 11:20:17;;;;;;;0.30;0.20;;;;;;;18.64;21.85;94148.22;5095757;28;20429;-84
2023/12/24 11:23:04;;;;;;;1.63;0.80;;;;;;;18.39;27.67;94148.09;5090180;28;20112;-84
2023/12/24 11:25:47;;;;;;;1.63;0.88;;;;;;;18.16;29.66;94153.69;5095566;28;20035;-84
2023/12/24 11:28:38;;;;;;;2.63;0.70;;;;;;;18.56;23.05;94141.13;5096041;28;20024;-94
2023/12/24 11:31:06;;;;;;;0.75;0.30;;;;;;;18.66;22.75;94143.41;5097107;28;20059;-93
2023/12/24 11:33:35;;;;;;;0.98;0.57;;;;;;;18.68;23.84;94143.84;5081379;28;20028;-94